Thunder radar more information blitzortung!


Radar de pluja more information rain snow radar


Visita la nostra xarxa de llocs de meteo:

Template documentation
and downloads

And another site



No particular awareness of the weather is required.    There are no Weather-warnings

Pagina Historial Weather Underground text

Diari Resum January 3, 2018 Unitats:  Mètric    Imperial   Tant
« Previous Dia
SegĂźent Dia »
Diari Setmana Mensual Anual Personalitzada
  Maxima: Minima: Media:
Temperatura: -17.8 °C -12.2 °C -8.3 °C
Punt de rosada: -17.8 °C -14.7 °C -13.1 °C
Humitat: Humidity % 44 % 58 %
Wind Speed: 0 km/h 0 km/h 19.2 km/h
RĂ fegues de vent: 0 km/h - -
Vent:- - WSW
Pression baro: 0 hPa 34496.6 hPa -
Precipitacions: 0 mm    
Historical Graphs
 
 
Dades de taula per January 3, 2018
Temps Temperatura Punt de rosada Pression baro Vent Wind Speed RĂ fegues de vent Humitat Rainfall Rate (Hourly)
-17.8 °C -17.8 °C 0 hPa Calm     Humidity % 0 mm
00:03 -10.9 °C -14.2 °C 34635.4 hPa NNE 9 km/h 9 km/h 67 % 0 mm
00:07 -10.9 °C -14.2 °C 34635.4 hPa West 6 km/h 6 km/h 67 % 0 mm
00:10 -11.2 °C -14.3 °C 34635.4 hPa NNW 5.1 km/h 7.7 km/h 69 % 0 mm
00:20 -11.4 °C -14.5 °C 34635.4 hPa NW 5.1 km/h 7.7 km/h 69 % 0 mm
00:30 -11.5 °C -14.4 °C 34635.4 hPa NW 7.7 km/h 7.7 km/h 70 % 0 mm
00:40 -11.7 °C -14.6 °C 34635.4 hPa Calm   7.7 km/h 70 % 0 mm
00:50 -11.7 °C -14.5 °C 34635.4 hPa WNW 5.1 km/h 5.1 km/h 71 % 0 mm
01:00 -11.7 °C -14.6 °C 34635.4 hPa North 2.6 km/h 10.3 km/h 71 % 0 mm
01:10 -11.8 °C -14.6 °C 34635.4 hPa North 5.1 km/h 7.7 km/h 72 % 0 mm
01:20 -11.8 °C -14.5 °C 34635.4 hPa North 2.6 km/h 5.1 km/h 72 % 0 mm
01:30 -11.8 °C -14.5 °C 34635.4 hPa North 2.6 km/h 5.1 km/h 72 % 0 mm
01:40 -11.9 °C -14.6 °C 34635.4 hPa North 2.6 km/h 5.1 km/h 72 % 0 mm
01:50 -12 °C -14.6 °C 34635.4 hPa NNE 2.6 km/h 5.1 km/h 73 % 0 mm
02:00 -12 °C -14.6 °C 34635.4 hPa NE 2.6 km/h 7.7 km/h 73 % 0 mm
02:10 -12 °C -14.6 °C 34635.4 hPa NNW 2.6 km/h 5.1 km/h 73 % 0 mm
02:20 -11.9 °C -14.5 °C 34669.3 hPa WNW 2.6 km/h 5.1 km/h 73 % 0 mm
02:30 -12 °C -14.6 °C 34669.3 hPa WNW 2.6 km/h 5.1 km/h 73 % 0 mm
02:40 -12.2 °C -14.7 °C 34635.4 hPa WSW 2.6 km/h 5.1 km/h 73 % 0 mm
02:50 -11.9 °C -14.4 °C 34635.4 hPa NNW 5.1 km/h 7.7 km/h 74 % 0 mm
03:00 -11.7 °C -14.1 °C 34635.4 hPa NE 7.7 km/h 7.7 km/h 74 % 0 mm
03:10 -11.5 °C -14 °C 34635.4 hPa NE 5.1 km/h 7.7 km/h 74 % 0 mm
03:20 -11.4 °C -13.9 °C 34635.4 hPa Calm   5.1 km/h 74 % 0 mm
03:30 -11.4 °C -14 °C 34635.4 hPa NNE 5.1 km/h 5.1 km/h 73 % 0 mm
03:40 -11.3 °C -13.9 °C 34669.3 hPa NE 5.1 km/h 10.3 km/h 73 % 0 mm
03:50 -11.3 °C -13.9 °C 34669.3 hPa NE 2.6 km/h 7.7 km/h 73 % 0 mm
04:00 -10.8 °C -13.4 °C 34669.3 hPa ESE 2.6 km/h 15.6 km/h 73 % 0 mm
04:10 -10.4 °C -13.2 °C 34635.4 hPa ENE 5.1 km/h 15.6 km/h 72 % 0 mm
04:20 -10.1 °C -12.9 °C 34669.3 hPa North 7.7 km/h 15.6 km/h 72 % 0 mm
04:30 -9.8 °C -12.7 °C 34669.3 hPa WNW 5.1 km/h 7.7 km/h 71 % 0 mm
10:35 -9.5 °C -12.6 °C 34669.3 hPa ENE 14 km/h 14 km/h 69 % 0 mm
10:36 -9.5 °C -12.6 °C 34669.3 hPa ENE 15 km/h 15 km/h 69 % 0 mm
10:37 -9.5 °C -12.6 °C 34635.4 hPa East 20.9 km/h 20.9 km/h 69 % 0 mm
10:42 -9.7 °C -12.9 °C 34635.4 hPa NNW 9 km/h 9 km/h 68 % 0 mm
10:47 -9.4 °C -12.6 °C 34635.4 hPa West 11.9 km/h 11.9 km/h 69 % 0 mm
10:49 -9.3 °C -12.4 °C 34635.4 hPa North 15 km/h 15 km/h 69 % 0 mm
10:54 -9.2 °C -12.4 °C 34669.3 hPa NNW 23.8 km/h 23.8 km/h 68 % 0 mm
10:55 -9.2 °C -12.4 °C 34669.3 hPa NW 23.8 km/h 23.8 km/h 68 % 0 mm
11:00 -9.1 °C -12.5 °C 34669.3 hPa WNW 12.9 km/h 25.9 km/h 67 % 0 mm
11:05 -9 °C -12.6 °C 34669.3 hPa West 38.8 km/h 38.8 km/h 66 % 0 mm
11:06 -9 °C -12.6 °C 34669.3 hPa North 17.9 km/h 17.9 km/h 66 % 0 mm
11:09 -8.9 °C -12.4 °C 34635.4 hPa SSW 29.8 km/h 29.8 km/h 66 % 0 mm
11:13 -8.9 °C -12.6 °C 34635.4 hPa WSW 29.8 km/h 29.8 km/h 65 % 0 mm
11:14 -8.8 °C -12.5 °C 34635.4 hPa East 15 km/h 15 km/h 65 % 0 mm
11:19 -8.8 °C -12.6 °C 34635.4 hPa West 26.9 km/h 26.9 km/h 64 % 0 mm
11:21 -8.8 °C -12.6 °C 34635.4 hPa South 23.8 km/h 23.8 km/h 64 % 0 mm
11:24 -8.8 °C -12.6 °C 34635.4 hPa WNW 26.9 km/h 26.9 km/h 64 % 0 mm
11:26 -8.8 °C -12.6 °C 34635.4 hPa SW 23.3 km/h 23.3 km/h 64 % 0 mm
11:30 -8.7 °C -12.5 °C 34635.4 hPa West 25.4 km/h 25.4 km/h 64 % 0 mm
11:33 -8.7 °C -12.7 °C 34635.4 hPa WNW 32.8 km/h 32.8 km/h 63 % 0 mm
11:36 -8.7 °C -12.6 °C 34635.4 hPa NW 44.7 km/h 44.7 km/h 63 % 0 mm
11:40 -8.6 °C -12.6 °C 34635.4 hPa NW 23.8 km/h 23.8 km/h 63 % 0 mm
11:41 -8.6 °C -12.5 °C 34635.4 hPa SSW 23.8 km/h 23.8 km/h 63 % 0 mm
11:46 -8.6 °C -12.5 °C 34635.4 hPa WSW 20.9 km/h 20.9 km/h 63 % 0 mm
11:47 -8.6 °C -12.5 °C 34635.4 hPa WSW 26.9 km/h 26.9 km/h 63 % 0 mm
11:52 -8.5 °C -12.4 °C 34635.4 hPa West 29.8 km/h 29.8 km/h 63 % 0 mm
11:53 -8.4 °C -12.4 °C 34635.4 hPa WSW 20.9 km/h 20.9 km/h 63 % 0 mm
11:58 -8.4 °C -12.3 °C 34635.4 hPa WSW 16.1 km/h 16.1 km/h 63 % 0 mm
11:59 -8.4 °C -12.4 °C 34635.4 hPa WSW 15 km/h 15.6 km/h 62 % 0 mm
12:04 -8.3 °C -12.6 °C 34635.4 hPa WSW 23.8 km/h 23.8 km/h 61 % 0 mm
12:06 -8.3 °C -12.6 °C 34635.4 hPa West 20.9 km/h 20.9 km/h 61 % 0 mm
12:10 -8.3 °C -12.6 °C 34635.4 hPa WSW 29.8 km/h 29.8 km/h 61 % 0 mm
12:15 -8.3 °C -12.7 °C 34635.4 hPa West 31.4 km/h 31.4 km/h 60 % 0 mm
12:17 -8.3 °C -12.6 °C 34635.4 hPa West 32.8 km/h 32.8 km/h 60 % 0 mm
12:21 -8.2 °C -12.6 °C 34635.4 hPa West 35.7 km/h 35.7 km/h 60 % 0 mm
12:23 -8.1 °C -12.4 °C 34601.5 hPa SW 25.4 km/h 25.4 km/h 60 % 0 mm
12:28 -8.1 °C -12.4 °C 34601.5 hPa SW 26.9 km/h 26.9 km/h 60 % 0 mm
12:29 -8.1 °C -12.6 °C 34601.5 hPa West 47.6 km/h 47.6 km/h 59 % 0 mm
12:31 -8 °C -12.4 °C 34601.5 hPa West 20.9 km/h 20.9 km/h 60 % 0 mm
12:34 -8 °C -12.5 °C 34601.5 hPa WNW 17.9 km/h 17.9 km/h 59 % 0 mm
12:39 -8 °C -12.5 °C 34601.5 hPa WNW 26.9 km/h 26.9 km/h 59 % 0 mm
12:40 -8 °C -12.5 °C 34601.5 hPa West 18.2 km/h 44.1 km/h 59 % 0 mm
12:45 -7.9 °C -12.4 °C 34601.5 hPa West 15.6 km/h 23.3 km/h 59 % 0 mm
12:46 -7.9 °C -12.4 °C 34601.5 hPa West 32.3 km/h 32.3 km/h 59 % 0 mm
12:50 -7.9 °C -12.4 °C 34601.5 hPa WSW 29.8 km/h 29.8 km/h 59 % 0 mm
12:52 -7.9 °C -12.4 °C 34601.5 hPa WSW 20.9 km/h 20.9 km/h 59 % 0 mm
12:57 -7.9 °C -12.4 °C 34601.5 hPa WNW 35.7 km/h 35.7 km/h 59 % 0 mm
13:01 -7.9 °C -12.4 °C 34601.5 hPa WNW 23.8 km/h 23.8 km/h 59 % 0 mm
13:03 -7.9 °C -12.4 °C 34601.5 hPa NNW 25.1 km/h 25.1 km/h 59 % 0 mm
13:08 -7.9 °C -12.4 °C 34601.5 hPa SSW 23.3 km/h 23.3 km/h 59 % 0 mm
13:10 -7.8 °C -12.5 °C 34601.5 hPa WSW 32.8 km/h 32.8 km/h 58 % 0 mm
13:14 -7.8 °C -12.4 °C 34601.5 hPa West 26.9 km/h 26.9 km/h 58 % 0 mm
13:18 -7.7 °C -12.4 °C 34601.5 hPa West 17.9 km/h 17.9 km/h 58 % 0 mm
13:20 -7.7 °C -12.3 °C 34601.5 hPa West 20.9 km/h 20.9 km/h 58 % 0 mm
13:25 -7.6 °C -12.3 °C 34601.5 hPa West 34.1 km/h 34.1 km/h 58 % 0 mm
13:26 -7.6 °C -12.3 °C 34601.5 hPa WNW 35.7 km/h 35.7 km/h 58 % 0 mm
13:30 -7.6 °C -12.2 °C 34601.5 hPa NNW 23.8 km/h 23.8 km/h 58 % 0 mm
13:35 -7.6 °C -12.4 °C 34601.5 hPa NW 25.4 km/h 25.4 km/h 57 % 0 mm
13:36 -7.5 °C -12.3 °C 34601.5 hPa WSW 23.8 km/h 23.8 km/h 57 % 0 mm
13:41 -7.5 °C -12.3 °C 34601.5 hPa WNW 23.8 km/h 23.8 km/h 57 % 0 mm
13:43 -7.5 °C -12.3 °C 34601.5 hPa NW 20.9 km/h 20.9 km/h 57 % 0 mm
13:48 -7.4 °C -12.4 °C 34601.5 hPa WNW 41.7 km/h 41.7 km/h 56 % 0 mm
13:50 -7.4 °C -12.4 °C 34601.5 hPa WNW 29.8 km/h 29.8 km/h 56 % 0 mm
13:51 -7.4 °C -12.4 °C 34601.5 hPa WNW 26.9 km/h 26.9 km/h 56 % 0 mm
13:56 -7.4 °C -12.4 °C 34601.5 hPa WSW 32.8 km/h 32.8 km/h 56 % 0 mm
13:59 -7.4 °C -12.4 °C 34601.5 hPa WNW 38.8 km/h 38.8 km/h 56 % 0 mm
14:03 -7.3 °C -12.3 °C 34601.5 hPa SW 38.8 km/h 38.8 km/h 56 % 0 mm
14:04 -7.3 °C -12.4 °C 34601.5 hPa WNW 44.7 km/h 44.7 km/h 55 % 0 mm
14:09 -7.3 °C -12.4 °C 34601.5 hPa West 27.2 km/h 27.2 km/h 55 % 0 mm
14:10 -7.3 °C -12.4 °C 34601.5 hPa West 38.1 km/h 38.1 km/h 55 % 0 mm
14:13 -7.3 °C -12.4 °C 34601.5 hPa West 32.8 km/h 32.8 km/h 55 % 0 mm
14:18 -7.2 °C -12.4 °C 34601.5 hPa West 20.9 km/h 20.9 km/h 54 % 0 mm
14:19 -7.2 °C -12.4 °C 34601.5 hPa WNW 29.8 km/h 29.8 km/h 54 % 0 mm
14:21 -7.2 °C -12.4 °C 34567.7 hPa West 41.7 km/h 41.7 km/h 54 % 0 mm
14:26 -7.1 °C -12.4 °C 34567.7 hPa NNE 23.8 km/h 23.8 km/h 54 % 0 mm
14:31 -7.1 °C -12.3 °C 34567.7 hPa WSW 25.4 km/h 25.4 km/h 54 % 0 mm
14:34 -7.1 °C -12.5 °C 34567.7 hPa WNW 23.8 km/h 23.8 km/h 53 % 0 mm
14:39 -7 °C -12.4 °C 34601.5 hPa West 20.9 km/h 20.9 km/h 53 % 0 mm
14:41 -7 °C -12.4 °C 34601.5 hPa NW 20.9 km/h 20.9 km/h 53 % 0 mm
14:46 -6.9 °C -12.4 °C 34601.5 hPa WSW 32.8 km/h 32.8 km/h 53 % 0 mm
14:47 -6.9 °C -12.4 °C 34601.5 hPa WSW 26.9 km/h 26.9 km/h 53 % 0 mm
14:52 -6.9 °C -12.3 °C 34601.5 hPa WSW 19.2 km/h 19.2 km/h 53 % 0 mm
14:53 -6.8 °C -12.4 °C 34601.5 hPa West 23.8 km/h 23.8 km/h 52 % 0 mm
14:58 -6.8 °C -12.4 °C 34601.5 hPa West 50.7 km/h 50.7 km/h 52 % 0 mm
14:59 -6.8 °C -12.4 °C 34601.5 hPa WSW 27.2 km/h 27.2 km/h 52 % 0 mm
15:01 -6.8 °C -12.4 °C 34601.5 hPa NNW 32.8 km/h 32.8 km/h 52 % 0 mm
15:04 -6.8 °C -12.4 °C 34601.5 hPa SSW 20.9 km/h 20.9 km/h 52 % 0 mm
15:09 -6.6 °C -12.4 °C 34601.5 hPa WSW 15 km/h 17.9 km/h 51 % 0 mm
15:10 -6.6 °C -12.4 °C 34601.5 hPa West 15 km/h 17.9 km/h 51 % 0 mm
15:15 -6.6 °C -12.4 °C 34601.5 hPa WNW 38.8 km/h 38.8 km/h 51 % 0 mm
15:17 -6.6 °C -12.4 °C 34601.5 hPa WNW 20.9 km/h 20.9 km/h 51 % 0 mm
15:22 -6.5 °C -12.3 °C 34601.5 hPa SSW 16.6 km/h 16.6 km/h 51 % 0 mm
15:25 -6.4 °C -12.3 °C 34601.5 hPa West 12.9 km/h 20.8 km/h 51 % 0 mm
15:27 -6.4 °C -12.2 °C 34601.5 hPa WSW 15 km/h 15 km/h 51 % 0 mm
15:31 -6.3 °C -12.2 °C 34601.5 hPa WNW 17.9 km/h 17.9 km/h 51 % 0 mm
15:35 -6.3 °C -12.2 °C 34601.5 hPa West 15 km/h 15 km/h 51 % 0 mm
15:40 -6.4 °C -12.4 °C 34601.5 hPa WSW 17.9 km/h 17.9 km/h 50 % 0 mm
15:45 -6.4 °C -12.4 °C 34601.5 hPa West 17.9 km/h 17.9 km/h 50 % 0 mm
15:47 -6.4 °C -12.4 °C 34601.5 hPa West 17.9 km/h 17.9 km/h 50 % 0 mm
15:52 -6.4 °C -12.6 °C 34567.7 hPa WSW 23.8 km/h 23.8 km/h 49 % 0 mm
15:54 -6.5 °C -12.7 °C 34567.7 hPa WSW 15 km/h 15 km/h 49 % 0 mm
15:59 -6.5 °C -12.8 °C 34567.7 hPa WNW 29.8 km/h 29.8 km/h 48 % 0 mm
16:04 -6.6 °C -12.9 °C 34567.7 hPa WSW 11.9 km/h 11.9 km/h 48 % 0 mm
16:05 -6.6 °C -12.9 °C 34567.7 hPa NW 11.9 km/h 11.9 km/h 48 % 0 mm
16:10 -6.6 °C -12.9 °C 34601.5 hPa West 23.8 km/h 23.8 km/h 48 % 0 mm
16:15 -6.7 °C -12.9 °C 34601.5 hPa West 17.9 km/h 17.9 km/h 48 % 0 mm
16:16 -6.7 °C -12.9 °C 34601.5 hPa West 9.8 km/h 9.8 km/h 48 % 0 mm
16:21 -6.7 °C -13.2 °C 34601.5 hPa West 15 km/h 15 km/h 47 % 0 mm
16:26 -6.7 °C -13 °C 34601.5 hPa West 11.9 km/h 11.9 km/h 48 % 0 mm
16:28 -6.7 °C -13 °C 34601.5 hPa WSW 11.9 km/h 11.9 km/h 48 % 0 mm
16:33 -6.8 °C -13.2 °C 34601.5 hPa SW 15 km/h 15 km/h 47 % 0 mm
16:38 -6.8 °C -13.3 °C 34567.7 hPa SW 11.9 km/h 11.9 km/h 47 % 0 mm
16:39 -6.8 °C -13.3 °C 34567.7 hPa WSW 17.9 km/h 17.9 km/h 47 % 0 mm
16:41 -6.8 °C -13.3 °C 34567.7 hPa WSW 26.9 km/h 26.9 km/h 47 % 0 mm
16:44 -6.8 °C -13.5 °C 34567.7 hPa WSW 26.9 km/h 26.9 km/h 46 % 0 mm
16:50 -6.9 °C -13.5 °C 34567.7 hPa SW 15 km/h 15 km/h 46 % 0 mm
16:51 -6.9 °C -13.5 °C 34567.7 hPa SW 15 km/h 15 km/h 46 % 0 mm
16:56 -6.9 °C -13.6 °C 34601.5 hPa West 15.3 km/h 15.3 km/h 46 % 0 mm
17:01 -6.9 °C -13.6 °C 34601.5 hPa SW 15.3 km/h 15.3 km/h 46 % 0 mm
17:02 -7 °C -13.6 °C 34601.5 hPa West 15 km/h 15 km/h 46 % 0 mm
17:07 -7.1 °C -13.7 °C 34567.7 hPa SW 17.9 km/h 17.9 km/h 46 % 0 mm
17:09 -7.1 °C -13.7 °C 34567.7 hPa WSW 17.9 km/h 17.9 km/h 46 % 0 mm
17:10 -7.1 °C -13.7 °C 34567.7 hPa West 15 km/h 15 km/h 46 % 0 mm
17:15 -7.1 °C -13.8 °C 34567.7 hPa WSW 11.9 km/h 11.9 km/h 45 % 0 mm
17:21 -7 °C -14 °C 34601.5 hPa West 32.8 km/h 32.8 km/h 44 % 0 mm
17:24 -7.1 °C -13.8 °C 34601.5 hPa West 15 km/h 15 km/h 45 % 0 mm
17:28 -7.1 °C -14.1 °C 34601.5 hPa SW 20.9 km/h 20.9 km/h 44 % 0 mm
17:31 -7.2 °C -14.1 °C 34601.5 hPa WSW 15 km/h 15 km/h 44 % 0 mm
17:34 -7.2 °C -14.2 °C 34601.5 hPa SW 17.9 km/h 17.9 km/h 44 % 0 mm
17:37 -7.2 °C -14.1 °C 34601.5 hPa SW 26.9 km/h 26.9 km/h 44 % 0 mm
17:40 -7.2 °C -14.1 °C 34601.5 hPa WSW 20.9 km/h 20.9 km/h 44 % 0 mm
17:45 -7.2 °C -14.1 °C 34601.5 hPa WNW 15 km/h 15 km/h 44 % 0 mm
17:46 -7.2 °C -14.2 °C 34601.5 hPa SW 17.9 km/h 17.9 km/h 44 % 0 mm
17:51 -7.2 °C -14.2 °C 34601.5 hPa West 26.9 km/h 26.9 km/h 44 % 0 mm
17:53 -7.3 °C -14.1 °C 34601.5 hPa WSW 17.9 km/h 17.9 km/h 45 % 0 mm
17:56 -7.3 °C -14.1 °C 34601.5 hPa WSW 16.6 km/h 16.6 km/h 45 % 0 mm
18:01 -7.3 °C -14.1 °C 34601.5 hPa SW 14.5 km/h 14.5 km/h 45 % 0 mm
18:02 -7.3 °C -14.1 °C 34601.5 hPa West 15 km/h 15 km/h 45 % 0 mm
18:07 -7.3 °C -14.1 °C 34601.5 hPa West 20.9 km/h 20.9 km/h 45 % 0 mm
18:12 -7.4 °C -14.2 °C 34601.5 hPa WSW 23.8 km/h 23.8 km/h 45 % 0 mm
18:14 -7.4 °C -14.2 °C 34601.5 hPa WNW 20.9 km/h 20.9 km/h 45 % 0 mm
18:19 -7.3 °C -14.1 °C 34601.5 hPa West 20.9 km/h 20.9 km/h 45 % 0 mm
18:20 -9.1 °C -12.9 °C 34601.5 hPa WSW 15.6 km/h 23.3 km/h 63 % 0 mm
18:24 -7.4 °C -14 °C 34601.5 hPa WNW 26.9 km/h 26.9 km/h 46 % 0 mm
18:27 -7.4 °C -14 °C 34601.5 hPa WNW 29.8 km/h 29.8 km/h 46 % 0 mm
18:30 -7.4 °C -14 °C 34601.5 hPa West 12.9 km/h 31.1 km/h 46 % 0 mm
18:34 -7.4 °C -13.8 °C 34601.5 hPa WSW 17.9 km/h 17.9 km/h 47 % 0 mm
18:35 -7.4 °C -13.8 °C 34601.5 hPa WNW 28.2 km/h 28.2 km/h 47 % 0 mm
18:40 -7.4 °C -13.8 °C 34601.5 hPa West 16.1 km/h 16.1 km/h 47 % 0 mm
18:42 -7.5 °C -13.7 °C 34601.5 hPa WSW 11.9 km/h 11.9 km/h 48 % 0 mm
18:46 -7.6 °C -13.8 °C 34601.5 hPa WNW 17.9 km/h 17.9 km/h 48 % 0 mm
18:47 -7.6 °C -13.8 °C 34601.5 hPa WSW 15.3 km/h 15.3 km/h 48 % 0 mm
18:50 -9.1 °C -12.8 °C 34601.5 hPa WSW 12.9 km/h 20.8 km/h 64 % 0 mm
18:52 -7.6 °C -13.7 °C 34601.5 hPa WSW 26.9 km/h 26.9 km/h 49 % 0 mm
18:53 -7.6 °C -13.7 °C 34601.5 hPa WSW 17.9 km/h 17.9 km/h 49 % 0 mm
19:00 -7.7 °C -13.8 °C 34601.5 hPa WSW 15 km/h 15 km/h 49 % 0 mm
19:02 -7.7 °C -13.8 °C 34601.5 hPa West 20.9 km/h 20.9 km/h 49 % 0 mm
19:06 -7.8 °C -13.7 °C 34601.5 hPa WSW 16.1 km/h 16.1 km/h 50 % 0 mm
19:09 -7.8 °C -13.7 °C 34601.5 hPa SW 15 km/h 15 km/h 50 % 0 mm
19:12 -7.8 °C -13.7 °C 34601.5 hPa West 26.9 km/h 26.9 km/h 50 % 0 mm
19:16 -7.8 °C -13.7 °C 34601.5 hPa West 15 km/h 15 km/h 50 % 0 mm
19:18 -7.8 °C -13.7 °C 34601.5 hPa West 17.9 km/h 17.9 km/h 50 % 0 mm
19:20 -9 °C -12.7 °C 34601.5 hPa WSW 7.7 km/h 12.9 km/h 65 % 0 mm
19:23 -7.8 °C -13.6 °C 34601.5 hPa West 16.1 km/h 16.1 km/h 51 % 0 mm
19:28 -7.8 °C -13.6 °C 34601.5 hPa WSW 23.8 km/h 23.8 km/h 51 % 0 mm
19:30 -9.1 °C -12.7 °C 34601.5 hPa West 7.7 km/h 18.2 km/h 65 % 0 mm
19:34 -7.9 °C -13.6 °C 34601.5 hPa West 17.9 km/h 17.9 km/h 51 % 0 mm
19:37 -7.9 °C -13.6 °C 34601.5 hPa West 26.9 km/h 26.9 km/h 51 % 0 mm
19:40 -7.9 °C -13.6 °C 34601.5 hPa WSW 20.9 km/h 20.9 km/h 51 % 0 mm
19:44 -7.9 °C -13.7 °C 34601.5 hPa SW 12.7 km/h 12.7 km/h 51 % 0 mm
19:47 -7.9 °C -13.5 °C 34601.5 hPa WSW 22.5 km/h 22.5 km/h 52 % 0 mm
19:50 -7.9 °C -13.5 °C 34601.5 hPa West 23.8 km/h 23.8 km/h 52 % 0 mm
19:52 -8 °C -13.6 °C 34601.5 hPa West 17.9 km/h 17.9 km/h 52 % 0 mm
19:57 -8 °C -13.6 °C 34601.5 hPa WNW 17.9 km/h 17.9 km/h 52 % 0 mm
19:59 -8 °C -13.6 °C 34601.5 hPa WNW 23.8 km/h 23.8 km/h 52 % 0 mm
20:00 -9.1 °C -12.7 °C 34601.5 hPa West 7.7 km/h 15.6 km/h 65 % 0 mm
20:03 -8 °C -13.4 °C 34601.5 hPa WNW 29.8 km/h 29.8 km/h 53 % 0 mm
20:08 -8 °C -13.4 °C 34601.5 hPa WSW 40.4 km/h 40.4 km/h 53 % 0 mm
20:10 -9.1 °C -12.7 °C 34567.7 hPa West 15.6 km/h 15.6 km/h 65 % 0 mm
20:13 -8.1 °C -13.4 °C 34601.5 hPa WSW 26.9 km/h 26.9 km/h 53 % 0 mm
20:15 -8.1 °C -13.4 °C 34601.5 hPa WSW 20.9 km/h 20.9 km/h 53 % 0 mm
20:18 -8.1 °C -13.5 °C 34601.5 hPa West 18.3 km/h 18.3 km/h 53 % 0 mm
20:20 -9.2 °C -12.8 °C 34567.7 hPa West 7.7 km/h 18.2 km/h 65 % 0 mm
20:23 -8.2 °C -13.4 °C 34635.4 hPa WSW 20.9 km/h 20.9 km/h 54 % 0 mm
20:26 -8.2 °C -13.4 °C 34635.4 hPa South 15.6 km/h 15.6 km/h 54 % 0 mm
20:29 -8.2 °C -13.4 °C 34635.4 hPa West 26.9 km/h 26.9 km/h 54 % 0 mm
20:30 -9.1 °C -12.6 °C 34567.7 hPa West 12.9 km/h 20.8 km/h 66 % 0 mm
20:32 -8.2 °C -13.4 °C 34635.4 hPa West 20.9 km/h 20.9 km/h 54 % 0 mm
20:39 -8.3 °C -13.3 °C 34601.5 hPa WSW 15 km/h 15 km/h 55 % 0 mm
20:42 -8.3 °C -13.4 °C 34601.5 hPa WSW 15 km/h 15 km/h 55 % 0 mm
20:44 -8.3 °C -13.4 °C 34601.5 hPa West 15 km/h 15 km/h 55 % 0 mm
20:47 -8.3 °C -13.4 °C 34601.5 hPa WSW 20.9 km/h 20.9 km/h 55 % 0 mm
20:50 -9.1 °C -12.6 °C 34567.7 hPa WSW 12.9 km/h 20.8 km/h 66 % 0 mm
20:51 -8.4 °C -13.3 °C 34601.5 hPa WSW 12.7 km/h 12.7 km/h 56 % 0 mm
20:56 -8.4 °C -13.2 °C 34601.5 hPa WSW 14.5 km/h 14.5 km/h 57 % 0 mm
20:57 -8.4 °C -13.2 °C 34601.5 hPa West 15 km/h 15 km/h 57 % 0 mm
21:02 -8.5 °C -13.1 °C 34601.5 hPa West 15 km/h 15 km/h 58 % 0 mm
21:03 -8.5 °C -13.1 °C 34601.5 hPa WSW 15 km/h 15 km/h 58 % 0 mm
21:05 -8.5 °C -13.1 °C 34601.5 hPa West 15.6 km/h 15.6 km/h 58 % 0 mm
21:10 -8.6 °C -13.2 °C 34635.4 hPa WSW 15 km/h 15 km/h 58 % 0 mm
21:15 -8.6 °C -13 °C 34635.4 hPa WSW 11.9 km/h 11.9 km/h 59 % 0 mm
21:17 -8.6 °C -13.1 °C 34635.4 hPa WSW 15 km/h 15 km/h 59 % 0 mm
21:18 -8.6 °C -13.1 °C 34635.4 hPa SW 15 km/h 15 km/h 59 % 0 mm
21:20 -9.1 °C -12.6 °C 34533.8 hPa West 15.6 km/h 28.5 km/h 66 % 0 mm
21:23 -8.7 °C -13.1 °C 34601.5 hPa WSW 11.9 km/h 11.9 km/h 59 % 0 mm
21:28 -8.7 °C -13.1 °C 34601.5 hPa WSW 15 km/h 15 km/h 59 % 0 mm
21:29 -8.7 °C -13.1 °C 34601.5 hPa SW 11.9 km/h 11.9 km/h 59 % 0 mm
21:30 -9 °C -12.7 °C 34533.8 hPa West 15.6 km/h 20.8 km/h 65 % 0 mm
21:33 -8.6 °C -12.9 °C 34601.5 hPa West 17.9 km/h 17.9 km/h 60 % 0 mm
21:38 -8.6 °C -12.9 °C 34635.4 hPa West 9 km/h 9 km/h 60 % 0 mm
21:40 -9.1 °C -12.7 °C 34533.8 hPa West 18.2 km/h 18.2 km/h 65 % 0 mm
21:43 -8.7 °C -13 °C 34635.4 hPa WSW 11.9 km/h 11.9 km/h 60 % 0 mm
21:44 -8.7 °C -13 °C 34635.4 hPa West 9 km/h 9 km/h 60 % 0 mm
21:45 -8.7 °C -13 °C 34635.4 hPa West 5.1 km/h 15.6 km/h 60 % 0 mm
21:50 -8.7 °C -13 °C 34635.4 hPa WNW 11.9 km/h 11.9 km/h 60 % 0 mm
21:53 -8.6 °C -12.8 °C 34635.4 hPa West 23.8 km/h 23.8 km/h 61 % 0 mm
21:57 -8.6 °C -12.8 °C 34635.4 hPa WSW 20.9 km/h 20.9 km/h 61 % 0 mm
22:01 -8.7 °C -12.9 °C 34635.4 hPa West 20.9 km/h 20.9 km/h 61 % 0 mm
22:02 -8.7 °C -12.9 °C 34635.4 hPa WSW 20.9 km/h 20.9 km/h 61 % 0 mm
22:07 -8.7 °C -12.9 °C 34601.5 hPa West 17.9 km/h 17.9 km/h 61 % 0 mm
22:08 -8.7 °C -12.9 °C 34601.5 hPa West 25.9 km/h 25.9 km/h 61 % 0 mm
22:10 -9.1 °C -12.7 °C 34533.8 hPa WSW 12.9 km/h 23.3 km/h 65 % 0 mm
22:11 -8.7 °C -12.9 °C 34601.5 hPa West 26.9 km/h 26.9 km/h 61 % 0 mm
22:13 -8.7 °C -12.9 °C 34601.5 hPa WSW 17.9 km/h 17.9 km/h 61 % 0 mm
22:17 -8.7 °C -12.9 °C 34601.5 hPa West 15 km/h 15 km/h 61 % 0 mm
22:19 -8.7 °C -12.9 °C 34601.5 hPa WNW 19.6 km/h 19.6 km/h 61 % 0 mm
22:24 -8.7 °C -12.9 °C 34635.4 hPa West 15 km/h 15 km/h 61 % 0 mm
22:26 -8.7 °C -12.9 °C 34635.4 hPa WSW 26.9 km/h 26.9 km/h 61 % 0 mm
22:29 -8.7 °C -12.9 °C 34635.4 hPa West 19.2 km/h 19.2 km/h 61 % 0 mm
22:33 -8.7 °C -12.9 °C 34635.4 hPa WSW 11.9 km/h 11.9 km/h 61 % 0 mm
22:34 -8.7 °C -12.9 °C 34635.4 hPa WNW 20.9 km/h 20.9 km/h 61 % 0 mm
22:39 -8.7 °C -12.9 °C 34635.4 hPa WSW 26.9 km/h 26.9 km/h 61 % 0 mm
22:40 -8.7 °C -12.9 °C 34635.4 hPa West 29.5 km/h 29.5 km/h 61 % 0 mm
22:45 -8.6 °C -12.8 °C 34635.4 hPa WSW 23.8 km/h 23.8 km/h 61 % 0 mm
22:50 -8.7 °C -12.9 °C 34635.4 hPa WSW 20.9 km/h 20.9 km/h 61 % 0 mm
22:51 -8.7 °C -12.9 °C 34635.4 hPa SW 20.9 km/h 20.9 km/h 61 % 0 mm
22:56 -8.6 °C -12.8 °C 34635.4 hPa WSW 15 km/h 15 km/h 61 % 0 mm
23:01 -8.7 °C -12.9 °C 34635.4 hPa NW 23.8 km/h 23.8 km/h 61 % 0 mm
23:02 -8.7 °C -12.9 °C 34635.4 hPa West 23.8 km/h 23.8 km/h 61 % 0 mm
23:07 -8.7 °C -12.8 °C 34635.4 hPa WSW 20.9 km/h 20.9 km/h 62 % 0 mm
23:10 -9 °C -12.7 °C 34533.8 hPa West 7.7 km/h 31.1 km/h 65 % 0 mm
23:12 -8.7 °C -12.8 °C 34635.4 hPa SW 20.9 km/h 20.9 km/h 62 % 0 mm
23:17 -8.7 °C -12.8 °C 34635.4 hPa WSW 20.9 km/h 20.9 km/h 62 % 0 mm
23:20 -9 °C -12.7 °C 34533.8 hPa WNW 15.6 km/h 20.8 km/h 65 % 0 mm
23:22 -8.8 °C -12.8 °C 34635.4 hPa WNW 11.9 km/h 11.9 km/h 62 % 0 mm
23:23 -8.8 °C -12.8 °C 34635.4 hPa WNW 15 km/h 15 km/h 62 % 0 mm
23:28 -8.8 °C -12.9 °C 34635.4 hPa WSW 11.9 km/h 11.9 km/h 62 % 0 mm
23:29 -8.8 °C -12.9 °C 34635.4 hPa WSW 25.9 km/h 25.9 km/h 62 % 0 mm
23:30 -8.9 °C -12.6 °C 34533.8 hPa WNW 18.2 km/h 38.8 km/h 65 % 0 mm
23:34 -8.8 °C -12.9 °C 34635.4 hPa WSW 23.8 km/h 23.8 km/h 62 % 0 mm
23:35 -8.8 °C -12.9 °C 34635.4 hPa WSW 23.8 km/h 23.8 km/h 62 % 0 mm
23:36 -8.8 °C -12.9 °C 34635.4 hPa NW 15 km/h 15.3 km/h 62 % 0 mm
23:40 -8.9 °C -12.6 °C 34533.8 hPa West 23.3 km/h 25.9 km/h 65 % 0 mm
23:41 -8.9 °C -13 °C 34635.4 hPa WNW 15 km/h 15 km/h 62 % 0 mm
23:46 -8.9 °C -13 °C 34635.4 hPa West 15.3 km/h 15.3 km/h 62 % 0 mm
23:50 -9 °C -12.7 °C 34496.6 hPa WSW 20.8 km/h 20.8 km/h 65 % 0 mm
23:51 -8.9 °C -12.9 °C 34635.4 hPa WNW 26.9 km/h 26.9 km/h 63 % 0 mm
23:56 -9 °C -12.9 °C 34601.5 hPa WSW 17.9 km/h 17.9 km/h 63 % 0 mm
23:57 -9 °C -12.9 °C 34601.5 hPa WSW 17.9 km/h 17.9 km/h 63 % 0 mm
Meteo Sesrovires
Elogis d' Weather Underground - 1.75 mb

Guio original per  Jim McMurry - jmcmurry@mwt.net Adaptat per a la plantilla per  Wim van der Kuil - Leuven-Template.eu

Trobareu la nostra informacio del temps tambe a:

Weather Underground

AWEKAS